Time;durP1;ratioP1;P1;durP2;ratioP2;P2;SDS_P1;SDS_P2;PMS_P1;PMS_P2;Temp;Humidity;BMP_temperature;BMP_pressure;BME280_temperature;BME280_humidity;BME280_pressure;Samples;Min_cycle;Max_cycle;Signal;HPM_P1;HPM_P2
2023/05/22 00:01:18;;;;;;;19.33;15.20;;;15.20;99.90;;;;;;5015067;28;20197;-82
2023/05/22 00:03:44;;;;;;;18.58;15.45;;;15.30;99.90;;;;;;5015933;28;20032;-81
2023/05/22 00:06:11;;;;;;;17.48;14.45;;;15.30;99.90;;;;;;5014617;28;20034;-82
2023/05/22 00:08:37;;;;;;;18.60;14.60;;;15.30;99.90;;;;;;5008017;28;20029;-80
2023/05/22 00:11:03;;;;;;;19.95;15.63;;;15.30;99.90;;;;;;5008650;28;20026;-82
2023/05/22 00:13:30;;;;;;;17.20;14.05;;;15.30;99.90;;;;;;5014362;28;20042;-82
2023/05/22 00:15:56;;;;;;;19.55;15.20;;;15.10;99.90;;;;;;5014144;28;20049;-83
2023/05/22 00:18:24;;;;;;;18.20;15.13;;;15.10;99.90;;;;;;5011410;28;20041;-82
2023/05/22 00:20:50;;;;;;;19.55;15.98;;;15.00;99.90;;;;;;5009623;28;20405;-81
2023/05/22 00:23:16;;;;;;;23.02;16.52;;;15.00;99.90;;;;;;4991752;28;20038;-81
2023/05/22 00:25:43;;;;;;;18.70;15.05;;;14.80;99.90;;;;;;5032955;28;20052;-81
2023/05/22 00:28:10;;;;;;;21.77;17.05;;;14.70;99.90;;;;;;5031730;28;20041;-82
2023/05/22 00:30:37;;;;;;;18.48;16.05;;;14.80;99.90;;;;;;5031814;28;20033;-81
2023/05/22 00:33:03;;;;;;;19.15;14.52;;;14.80;99.90;;;;;;5023832;28;20084;-81
2023/05/22 00:35:30;;;;;;;16.55;13.95;;;14.80;99.90;;;;;;5000905;28;20049;-81
2023/05/22 00:37:56;;;;;;;17.08;14.38;;;14.80;99.90;;;;;;5034365;28;20038;-83
2023/05/22 00:40:22;;;;;;;21.48;14.85;;;14.70;99.90;;;;;;5015892;28;20041;-82
2023/05/22 00:42:48;;;;;;;19.35;14.82;;;14.70;99.90;;;;;;5031183;28;20072;-82
2023/05/22 00:45:15;;;;;;;22.92;16.13;;;14.70;99.90;;;;;;5015950;28;20050;-82
2023/05/22 00:47:42;;;;;;;18.75;14.98;;;14.70;99.90;;;;;;5033036;28;20067;-82
2023/05/22 00:50:10;;;;;;;20.77;14.40;;;14.70;99.90;;;;;;5032423;28;20033;-81
2023/05/22 00:52:40;;;;;;;19.80;16.20;;;14.60;99.90;;;;;;5042671;28;20053;-80
2023/05/22 00:55:07;;;;;;;19.40;15.80;;;14.40;99.90;;;;;;5032434;28;20036;-82
2023/05/22 00:57:35;;;;;;;21.45;15.77;;;14.30;99.90;;;;;;5028919;28;20048;-81
2023/05/22 01:00:04;;;;;;;21.40;16.88;;;14.20;99.90;;;;;;5012224;28;20452;-81
2023/05/22 01:02:31;;;;;;;23.80;16.95;;;14.20;99.90;;;;;;5012922;28;20033;-82
2023/05/22 01:04:58;;;;;;;19.88;16.65;;;14.20;99.90;;;;;;5013593;28;20466;-83
2023/05/22 01:07:24;;;;;;;18.90;15.60;;;14.20;99.90;;;;;;5014990;28;20037;-81
2023/05/22 01:09:51;;;;;;;19.55;15.13;;;14.20;99.90;;;;;;5010634;28;20356;-81
2023/05/22 01:12:39;;;;;;;20.38;15.23;;;14.00;99.90;;;;;;5012796;28;20038;-81
2023/05/22 01:15:32;;;;;;;21.00;17.65;;;13.90;99.90;;;;;;5008768;28;20042;-82
2023/05/22 01:18:29;;;;;;;21.85;16.40;;;14.00;99.90;;;;;;5026735;28;20372;-83
2023/05/22 01:21:09;;;;;;;19.00;15.90;;;14.10;99.90;;;;;;5012559;28;20025;-81
2023/05/22 01:23:56;;;;;;;19.83;14.97;;;14.00;99.90;;;;;;5009363;28;20036;-82
2023/05/22 01:26:57;;;;;;;22.40;17.02;;;14.00;99.90;;;;;;5004178;28;20042;-81
2023/05/22 01:29:23;;;;;;;;;;;14.00;99.90;;;;;;5008282;28;20045;-81
2023/05/22 01:31:51;;;;;;;22.55;16.23;;;14.00;99.90;;;;;;5013726;28;20327;-81
2023/05/22 01:34:19;;;;;;;18.67;15.45;;;14.00;99.90;;;;;;5011313;28;20068;-81
2023/05/22 01:36:49;;;;;;;22.98;16.02;;;14.00;99.90;;;;;;5016374;28;20038;-81
2023/05/22 01:39:16;;;;;;;20.15;15.63;;;13.90;99.90;;;;;;4995214;28;20419;-82
2023/05/22 01:41:45;;;;;;;18.95;15.40;;;13.90;99.90;;;;;;5013370;28;20336;-82
2023/05/22 01:44:11;;;;;;;20.02;16.60;;;14.00;99.90;;;;;;4997004;28;20455;-81
2023/05/22 01:46:37;;;;;;;18.25;14.95;;;13.90;99.90;;;;;;5008334;28;20364;-81
2023/05/22 01:49:04;;;;;;;20.88;15.60;;;13.90;99.90;;;;;;5017654;28;20044;-82
2023/05/22 01:51:57;;;;;;;19.38;16.05;;;13.80;99.90;;;;;;5028629;28;20395;-82
2023/05/22 01:54:37;;;;;;;19.17;15.45;;;13.70;99.90;;;;;;5004251;28;20387;-82
2023/05/22 01:57:26;;;;;;;21.05;15.73;;;13.70;1.00;;;;;;5000993;28;20052;-82
2023/05/22 02:00:08;;;;;;;20.90;17.00;;;13.50;1.00;;;;;;5010026;28;20045;-81
2023/05/22 02:02:47;;;;;;;19.40;14.90;;;13.50;1.00;;;;;;5018495;28;20033;-81
2023/05/22 02:05:17;;;;;;;18.73;15.63;;;13.40;1.00;;;;;;5011533;28;20033;-82
2023/05/22 02:07:44;;;;;;;22.53;16.83;;;13.30;1.00;;;;;;5010918;28;20050;-81
2023/05/22 02:10:13;;;;;;;18.98;14.05;;;13.30;1.00;;;;;;4993173;28;20044;-81
2023/05/22 02:12:40;;;;;;;24.40;16.05;;;13.40;1.00;;;;;;5011924;28;20363;-80
2023/05/22 02:15:07;;;;;;;18.90;16.08;;;13.40;1.00;;;;;;4992311;28;20056;-82
2023/05/22 02:17:40;;;;;;;21.52;15.93;;;13.50;1.00;;;;;;5011385;28;20044;-80
2023/05/22 02:20:15;;;;;;;19.08;14.52;;;13.40;1.00;;;;;;4994760;28;20471;-81
2023/05/22 02:22:45;;;;;;;22.42;16.05;;;13.30;1.00;;;;;;4993742;28;20038;-80
2023/05/22 02:25:13;;;;;;;19.05;15.25;;;13.20;1.00;;;;;;5008585;28;20054;-80
2023/05/22 02:27:45;;;;;;;20.50;16.23;;;13.10;1.00;;;;;;5008551;28;20129;-80
2023/05/22 02:30:11;;;;;;;;;;;13.10;1.00;;;;;;5009375;28;20034;-80
2023/05/22 02:32:40;;;;;;;18.45;15.65;;;13.10;1.00;;;;;;5025658;28;19913;-80
2023/05/22 02:35:07;;;;;;;20.85;16.48;;;13.10;1.00;;;;;;5008483;28;20463;-80
2023/05/22 02:37:34;;;;;;;20.67;15.68;;;13.10;1.00;;;;;;5008061;28;20061;-80
2023/05/22 02:40:00;;;;;;;19.30;15.93;;;13.20;1.00;;;;;;5027009;28;20331;-80
2023/05/22 02:42:28;;;;;;;22.55;16.02;;;13.10;1.00;;;;;;4985463;28;20284;-80
2023/05/22 02:44:54;;;;;;;21.15;16.48;;;13.20;1.00;;;;;;5021976;28;20072;-80
2023/05/22 02:47:20;;;;;;;18.92;15.50;;;13.20;1.00;;;;;;5009114;28;20057;-79
2023/05/22 02:49:47;;;;;;;19.45;14.85;;;13.10;1.00;;;;;;5010990;28;20044;-80
2023/05/22 02:52:14;;;;;;;19.60;14.85;;;13.10;1.00;;;;;;5010175;28;20038;-80
2023/05/22 02:54:40;;;;;;;20.27;17.20;;;13.00;1.00;;;;;;4994409;28;20038;-80
2023/05/22 02:57:07;;;;;;;19.75;15.43;;;13.00;1.00;;;;;;4992482;28;20038;-80
2023/05/22 02:59:35;;;;;;;20.25;16.67;;;13.00;1.00;;;;;;5010890;28;20037;-80
2023/05/22 03:02:03;;;;;;;19.98;15.55;;;13.00;1.00;;;;;;5002475;28;20049;-80
2023/05/22 03:04:30;;;;;;;22.15;16.80;;;13.00;1.00;;;;;;5010879;28;20379;-80
2023/05/22 03:06:56;;;;;;;21.95;15.88;;;13.10;1.00;;;;;;5009455;28;20041;-80
2023/05/22 03:09:22;;;;;;;23.67;16.02;;;13.00;1.00;;;;;;5011746;28;20597;-80
2023/05/22 03:11:48;;;;;;;21.15;15.40;;;12.90;1.00;;;;;;5008438;28;20464;-80
2023/05/22 03:14:15;;;;;;;18.02;15.00;;;12.90;1.00;;;;;;5014997;28;20053;-80
2023/05/22 03:16:41;;;;;;;21.05;16.48;;;12.90;1.00;;;;;;5009038;28;20053;-79
2023/05/22 03:19:15;;;;;;;19.00;15.73;;;13.00;1.00;;;;;;5008831;28;20038;-80
2023/05/22 03:21:44;;;;;;;20.95;15.80;;;12.90;1.00;;;;;;5012120;28;20026;-79
2023/05/22 03:24:13;;;;;;;19.55;16.05;;;12.80;1.00;;;;;;5011665;28;20479;-80
2023/05/22 03:26:40;;;;;;;22.17;18.27;;;12.70;1.00;;;;;;5009304;28;20030;-80
2023/05/22 03:29:09;;;;;;;20.75;16.20;;;12.70;1.00;;;;;;5025711;28;20053;-80
2023/05/22 03:31:39;;;;;;;22.65;17.75;;;12.70;1.00;;;;;;5010458;28;20030;-80
2023/05/22 03:34:11;;;;;;;20.52;17.13;;;12.70;1.00;;;;;;5005971;28;20041;-80
2023/05/22 03:36:38;;;;;;;21.52;16.27;;;12.60;1.00;;;;;;5003157;28;20041;-80
2023/05/22 03:39:05;;;;;;;24.02;18.38;;;12.60;1.00;;;;;;5006286;28;20045;-81
2023/05/22 03:41:36;;;;;;;23.27;17.08;;;12.60;1.00;;;;;;5009729;28;20060;-78
2023/05/22 03:44:03;;;;;;;25.77;18.75;;;12.60;1.00;;;;;;5009625;28;20344;-78
2023/05/22 03:46:30;;;;;;;21.35;16.58;;;12.70;1.00;;;;;;4991650;28;20046;-79
2023/05/22 03:48:56;;;;;;;20.23;16.10;;;12.70;1.00;;;;;;4999001;28;20038;-79
2023/05/22 03:51:24;;;;;;;21.00;16.83;;;12.70;1.00;;;;;;5004065;28;20251;-79
2023/05/22 03:53:50;;;;;;;22.50;16.98;;;12.70;1.00;;;;;;5014647;28;20048;-79
2023/05/22 03:56:16;;;;;;;19.20;15.38;;;12.70;1.00;;;;;;5012724;28;20053;-79
2023/05/22 03:58:42;;;;;;;22.08;16.90;;;12.70;1.00;;;;;;5009491;28;20152;-79
2023/05/22 04:01:10;;;;;;;20.92;16.38;;;12.80;1.00;;;;;;5011822;28;20042;-79
2023/05/22 04:03:36;;;;;;;19.05;15.20;;;12.80;1.00;;;;;;5011523;28;20049;-79
2023/05/22 04:06:03;;;;;;;19.98;15.68;;;12.90;1.00;;;;;;5020760;28;20228;-79
2023/05/22 04:08:29;;;;;;;20.75;15.73;;;12.90;1.00;;;;;;5009691;28;20443;-78
2023/05/22 04:10:55;;;;;;;25.52;18.00;;;13.00;1.00;;;;;;5009904;28;20045;-78
2023/05/22 04:13:22;;;;;;;24.88;17.02;;;13.00;1.00;;;;;;5027395;28;20048;-79
2023/05/22 04:15:49;;;;;;;22.58;17.50;;;13.10;1.00;;;;;;5008396;28;20049;-77
2023/05/22 04:18:15;;;;;;;21.75;16.13;;;13.10;1.00;;;;;;5010579;28;20025;-76
2023/05/22 04:20:44;;;;;;;19.00;15.32;;;13.20;1.00;;;;;;5008462;28;20374;-77
2023/05/22 04:23:10;;;;;;;24.38;17.40;;;13.20;1.00;;;;;;5008343;28;20026;-77
2023/05/22 04:25:37;;;;;;;19.35;16.20;;;13.20;1.00;;;;;;5026356;28;20468;-77
2023/05/22 04:28:08;;;;;;;18.85;15.50;;;13.30;99.90;;;;;;5014380;28;20042;-80
2023/05/22 04:30:35;;;;;;;22.20;17.88;;;13.30;99.90;;;;;;5013536;28;20041;-78
2023/05/22 04:33:05;;;;;;;20.95;16.65;;;13.40;99.90;;;;;;4997168;28;20038;-77
2023/05/22 04:35:31;;;;;;;20.25;16.15;;;13.40;99.90;;;;;;5011234;28;20046;-77
2023/05/22 04:38:01;;;;;;;20.23;15.90;;;13.40;99.90;;;;;;5013564;28;20348;-77
2023/05/22 04:40:29;;;;;;;20.98;16.08;;;13.40;99.90;;;;;;5027558;28;20042;-78
2023/05/22 04:42:58;;;;;;;19.80;15.68;;;13.50;99.90;;;;;;5007714;28;20048;-76
2023/05/22 04:45:25;;;;;;;20.98;16.73;;;13.70;99.90;;;;;;5013828;28;20029;-76
2023/05/22 04:47:52;;;;;;;16.73;14.55;;;13.80;99.90;;;;;;5014520;28;20034;-76
2023/05/22 04:50:20;;;;;;;18.98;15.52;;;13.90;99.90;;;;;;5015549;28;20068;-77
2023/05/22 04:52:47;;;;;;;18.98;15.80;;;14.10;99.90;;;;;;4994438;28;20038;-77
2023/05/22 04:55:14;;;;;;;18.00;14.85;;;14.20;99.90;;;;;;5012753;28;20470;-77
2023/05/22 04:57:43;;;;;;;19.90;16.05;;;14.20;99.90;;;;;;5014459;28;20352;-76
2023/05/22 05:00:11;;;;;;;19.40;14.68;;;14.30;99.90;;;;;;5015243;28;20360;-77
2023/05/22 05:02:38;;;;;;;17.65;14.75;;;14.40;99.90;;;;;;5012960;28;20034;-77
2023/05/22 05:05:04;;;;;;;18.25;14.23;;;14.60;99.90;;;;;;5014284;28;20454;-77
2023/05/22 05:07:30;;;;;;;22.95;15.57;;;14.90;99.90;;;;;;5016044;28;20038;-77
2023/05/22 05:09:57;;;;;;;16.80;14.02;;;15.20;99.90;;;;;;4995946;28;20517;-77
2023/05/22 05:12:23;;;;;;;18.27;14.68;;;15.30;99.90;;;;;;5011901;28;20447;-77
2023/05/22 05:14:50;;;;;;;20.70;13.38;;;15.50;99.90;;;;;;5016991;28;20034;-77
2023/05/22 05:17:16;;;;;;;16.88;12.80;;;15.70;99.90;;;;;;5013646;28;20029;-77
2023/05/22 05:19:42;;;;;;;19.30;14.10;;;15.80;99.90;;;;;;5013476;28;20030;-79
2023/05/22 05:22:08;;;;;;;18.30;13.90;;;15.90;99.90;;;;;;5009481;28;20046;-78
2023/05/22 05:24:35;;;;;;;18.75;13.68;;;16.00;99.90;;;;;;5011084;28;20375;-77
2023/05/22 05:27:02;;;;;;;15.07;12.00;;;16.30;99.90;;;;;;5012325;28;20045;-78
2023/05/22 05:29:29;;;;;;;16.20;13.23;;;16.60;99.90;;;;;;5033721;28;20050;-77
2023/05/22 05:32:06;;;;;;;14.40;12.25;;;16.90;99.90;;;;;;5010960;28;20034;-77
2023/05/22 05:34:45;;;;;;;16.25;13.48;;;17.20;99.90;;;;;;5011975;28;20041;-78
2023/05/22 05:37:35;;;;;;;15.70;12.43;;;17.30;99.90;;;;;;5007624;28;20042;-77
2023/05/22 05:40:05;;;;;;;19.10;12.85;;;17.50;99.90;;;;;;5014863;28;20054;-79
2023/05/22 05:42:32;;;;;;;18.37;13.50;;;17.70;99.90;;;;;;5036364;28;20029;-77
2023/05/22 05:45:00;;;;;;;15.50;13.00;;;18.10;99.90;;;;;;5027078;28;20619;-77
2023/05/22 05:47:29;;;;;;;17.20;14.52;;;18.40;99.90;;;;;;5007185;28;20065;-77
2023/05/22 05:49:55;;;;;;;18.75;13.25;;;18.70;99.90;;;;;;5013755;28;20369;-77
2023/05/22 05:52:23;;;;;;;20.15;13.10;;;19.20;97.00;;;;;;5004481;28;20030;-77
2023/05/22 05:54:50;;;;;;;16.60;13.55;;;19.70;94.30;;;;;;5012473;28;20462;-77
2023/05/22 05:57:19;;;;;;;17.33;14.27;;;19.90;66.20;;;;;;5013786;28;20033;-78
2023/05/22 05:59:45;;;;;;;16.25;12.93;;;20.00;70.60;;;;;;5010846;28;20018;-77
2023/05/22 06:02:46;;;;;;;14.73;12.98;;;20.50;47.30;;;;;;5003724;28;20042;-76
2023/05/22 06:05:50;;;;;;;14.75;13.05;;;20.90;20.40;;;;;;4971970;28;20038;-78
2023/05/22 06:08:23;;;;;;;16.13;13.50;;;21.10;7.30;;;;;;4968832;28;20251;-76
2023/05/22 06:10:49;;;;;;;16.23;13.98;;;21.40;1.00;;;;;;4990456;28;20030;-77
2023/05/22 06:13:31;;;;;;;17.50;13.82;;;22.00;1.00;;;;;;5027700;28;20037;-74
2023/05/22 06:15:57;;;;;;;21.65;14.50;;;21.60;1.00;;;;;;5012910;28;20101;-75
2023/05/22 06:18:24;;;;;;;17.58;14.32;;;21.80;16.30;;;;;;5025720;28;20047;-74
2023/05/22 06:20:52;;;;;;;18.85;13.95;;;22.20;1.00;;;;;;5026261;28;20379;-77
2023/05/22 06:23:18;;;;;;;16.90;13.10;;;22.20;1.00;;;;;;5012435;28;20395;-75
2023/05/22 06:25:47;;;;;;;16.90;14.60;;;22.50;1.00;;;;;;5025904;28;20046;-76
2023/05/22 06:28:15;;;;;;;16.63;14.82;;;23.00;1.00;;;;;;5025445;28;20454;-76
2023/05/22 06:30:42;;;;;;;20.58;14.85;;;23.50;1.00;;;;;;5010910;28;20046;-77
2023/05/22 06:33:13;;;;;;;16.23;14.18;;;23.60;1.00;;;;;;4994698;28;20038;-76
2023/05/22 06:35:39;;;;;;;16.27;14.25;;;23.50;1.00;;;;;;5010957;28;20443;-75
2023/05/22 06:38:06;;;;;;;17.27;15.23;;;23.40;1.00;;;;;;5011106;28;20387;-75
2023/05/22 06:40:33;;;;;;;16.35;14.13;;;23.50;1.00;;;;;;5010315;28;20048;-80
2023/05/22 06:43:08;;;;;;;15.80;14.15;;;23.90;1.00;;;;;;5007520;28;20048;-75
2023/05/22 06:45:49;;;;;;;15.10;13.20;;;24.10;1.00;;;;;;5007948;28;20038;-75
2023/05/22 06:48:35;;;;;;;17.45;14.25;;;24.10;1.00;;;;;;5020074;28;20046;-75
2023/05/22 06:51:13;;;;;;;17.92;14.40;;;24.50;1.00;;;;;;5008707;28;20040;-76
2023/05/22 06:53:41;;;;;;;17.42;14.85;;;24.00;1.00;;;;;;5025574;28;20034;-76
2023/05/22 06:56:14;;;;;;;20.85;14.32;;;24.00;1.00;;;;;;5020579;28;20375;-75
2023/05/22 06:58:57;;;;;;;17.83;13.90;;;24.40;1.00;;;;;;5024144;28;20041;-75
2023/05/22 07:01:33;;;;;;;19.70;15.13;;;24.50;1.00;;;;;;5018609;28;20052;-75
2023/05/22 07:04:10;;;;;;;15.50;13.63;;;23.60;1.00;;;;;;4995719;28;20038;-75
2023/05/22 07:06:47;;;;;;;20.05;14.55;;;23.50;1.00;;;;;;5010661;28;20049;-75
2023/05/22 07:09:14;;;;;;;19.13;16.95;;;24.20;1.00;;;;;;5009726;28;20046;-76
2023/05/22 07:11:42;;;;;;;20.30;16.65;;;23.80;1.00;;;;;;5009173;28;20489;-75
2023/05/22 07:14:11;;;;;;;24.55;17.92;;;23.10;1.00;;;;;;5011945;28;20033;-75
2023/05/22 07:16:39;;;;;;;21.83;16.50;;;22.60;1.00;;;;;;5013653;28;20038;-75
2023/05/22 07:19:07;;;;;;;19.88;16.80;;;22.60;1.00;;;;;;4994467;28;20038;-77
2023/05/22 07:21:34;;;;;;;20.70;17.33;;;22.80;1.00;;;;;;5008449;28;20466;-77
2023/05/22 07:24:06;;;;;;;19.95;16.10;;;23.50;1.00;;;;;;5010477;28;20042;-77
2023/05/22 07:26:36;;;;;;;13.00;11.60;;;24.20;1.00;;;;;;5009509;28;20045;-77
2023/05/22 07:29:07;;;;;;;12.35;11.05;;;25.60;99.90;;;;;;5010358;28;20053;-76
2023/05/22 07:31:34;;;;;;;13.75;10.48;;;26.00;99.90;;;;;;5007995;28;20049;-75
2023/05/22 07:34:01;;;;;;;12.80;10.95;;;26.70;99.90;;;;;;5010087;28;20471;-77
2023/05/22 07:36:30;;;;;;;14.98;11.77;;;26.90;99.90;;;;;;5011702;28;20045;-76
2023/05/22 07:38:57;;;;;;;14.45;13.00;;;26.80;99.90;;;;;;5003123;28;20038;-78
2023/05/22 07:41:26;;;;;;;16.75;11.63;;;26.60;99.90;;;;;;4991946;28;20038;-78
2023/05/22 07:43:52;;;;;;;17.73;13.82;;;25.60;99.90;;;;;;5011956;28;20045;-78
2023/05/22 07:46:23;;;;;;;14.13;11.45;;;25.10;99.90;;;;;;5011249;28;20053;-77
2023/05/22 07:48:57;;;;;;;21.98;17.92;;;25.60;99.90;;;;;;5010334;28;20073;-78
2023/05/22 07:51:23;;;;;;;20.88;17.10;;;25.90;99.90;;;;;;5009721;28;20037;-78
2023/05/22 07:53:52;;;;;;;25.25;17.10;;;25.40;99.90;;;;;;5010367;28;20038;-78
2023/05/22 07:56:18;;;;;;;19.88;16.75;;;25.20;99.90;;;;;;5010826;28;20458;-78
2023/05/22 07:58:47;;;;;;;20.23;16.45;;;25.20;99.90;;;;;;5009878;28;20034;-79
2023/05/22 08:01:16;;;;;;;23.58;16.55;;;25.40;99.90;;;;;;5012140;28;20458;-83
2023/05/22 08:03:42;;;;;;;24.13;17.15;;;25.50;99.90;;;;;;5015089;28;20030;-78
2023/05/22 08:06:08;;;;;;;22.67;16.50;;;25.70;99.90;;;;;;5016879;28;20046;-76
2023/05/22 08:08:35;;;;;;;22.17;18.25;;;24.50;99.90;;;;;;5014478;28;20057;-78
2023/05/22 08:11:01;;;;;;;23.92;17.42;;;24.30;99.90;;;;;;5013972;28;20045;-77
2023/05/22 08:13:27;;;;;;;25.80;19.63;;;25.20;99.90;;;;;;5016210;28;20121;-78
2023/05/22 08:15:53;;;;;;;26.52;15.77;;;25.10;99.90;;;;;;5016327;28;20059;-78
2023/05/22 08:18:21;;;;;;;22.70;16.42;;;25.50;99.90;;;;;;5018424;28;20447;-78
2023/05/22 08:20:47;;;;;;;22.25;16.17;;;25.20;99.90;;;;;;5013816;28;20470;-79
2023/05/22 08:23:13;;;;;;;26.33;18.92;;;25.40;99.90;;;;;;5014667;28;20026;-78
2023/05/22 08:25:40;;;;;;;26.15;19.10;;;25.40;99.90;;;;;;5014164;28;20041;-80
2023/05/22 08:28:06;;;;;;;23.98;16.98;;;25.80;99.90;;;;;;5014640;28;20113;-76
2023/05/22 08:30:32;;;;;;;22.27;15.18;;;26.20;99.90;;;;;;5013671;28;20021;-78
2023/05/22 08:32:58;;;;;;;20.05;14.15;;;27.10;99.90;;;;;;5006461;28;20041;-78
2023/05/22 08:35:24;;;;;;;14.68;12.35;;;26.70;99.90;;;;;;5014791;28;20045;-78
2023/05/22 08:37:51;;;;;;;13.40;10.90;;;27.50;99.90;;;;;;5014592;28;20037;-78
2023/05/22 08:40:19;;;;;;;12.57;11.02;;;28.10;99.90;;;;;;5012266;28;20029;-81
2023/05/22 08:42:46;;;;;;;11.30;9.82;;;27.90;99.90;;;;;;5013032;28;20363;-77
2023/05/22 08:45:15;;;;;;;12.10;10.05;;;27.80;99.90;;;;;;5014095;28;20029;-76
2023/05/22 08:47:43;;;;;;;13.05;10.98;;;27.60;99.90;;;;;;5013402;28;20026;-77
2023/05/22 08:50:10;;;;;;;13.60;12.20;;;26.90;99.90;;;;;;5014453;28;20037;-78
2023/05/22 08:52:47;;;;;;;18.48;11.18;;;26.90;99.90;;;;;;5012363;28;20029;-78
2023/05/22 08:55:13;;;;;;;16.15;11.52;;;27.00;99.90;;;;;;5013781;28;20034;-77
2023/05/22 08:57:41;;;;;;;12.07;10.77;;;27.60;99.90;;;;;;5013264;28;20030;-76
2023/05/22 09:00:07;;;;;;;15.43;11.43;;;27.40;99.90;;;;;;5013853;28;20030;-77
2023/05/22 09:02:34;;;;;;;11.70;9.88;;;27.00;99.90;;;;;;5012226;28;20025;-77
2023/05/22 09:05:00;;;;;;;13.25;11.23;;;27.30;99.90;;;;;;5014226;28;20033;-77
2023/05/22 09:07:28;;;;;;;20.15;16.95;;;27.60;99.90;;;;;;5009814;28;20034;-77
2023/05/22 09:09:55;;;;;;;21.95;18.10;;;27.40;99.90;;;;;;5013684;28;20045;-77
2023/05/22 09:12:24;;;;;;;21.80;18.48;;;26.30;99.90;;;;;;5010999;28;20057;-78
2023/05/22 09:14:50;;;;;;;25.73;18.98;;;25.20;99.90;;;;;;5012102;28;20045;-78
2023/05/22 09:17:16;;;;;;;21.83;18.40;;;24.70;99.90;;;;;;5013606;28;20460;-78
2023/05/22 09:19:46;;;;;;;21.05;17.02;;;24.40;99.90;;;;;;5013740;28;20033;-78
2023/05/22 09:22:13;;;;;;;19.60;15.85;;;24.90;99.90;;;;;;5012705;28;20109;-79
2023/05/22 09:24:44;;;;;;;22.85;19.70;;;25.40;99.90;;;;;;5010268;28;20030;-77
2023/05/22 09:27:10;;;;;;;24.60;19.02;;;25.00;99.90;;;;;;5014203;28;20057;-77
2023/05/22 09:29:55;;;;;;;25.23;17.08;;;24.70;99.90;;;;;;5010506;28;20040;-78
2023/05/22 09:32:22;;;;;;;22.15;16.17;;;25.30;99.90;;;;;;5009528;28;20038;-79
2023/05/22 09:34:49;;;;;;;22.38;17.55;;;25.50;99.90;;;;;;5013601;28;20042;-78
2023/05/22 09:37:17;;;;;;;21.25;16.45;;;25.80;99.90;;;;;;5013788;28;20049;-76
2023/05/22 09:39:45;;;;;;;20.75;15.27;;;25.50;99.90;;;;;;5012672;28;20033;-78
2023/05/22 09:42:14;;;;;;;21.15;14.38;;;25.60;99.90;;;;;;5011863;28;20033;-76
2023/05/22 09:44:43;;;;;;;23.20;16.07;;;26.30;99.90;;;;;;5012636;28;20044;-76
2023/05/22 09:47:10;;;;;;;19.02;14.85;;;25.90;99.90;;;;;;5013388;28;20045;-76
2023/05/22 09:49:43;;;;;;;20.02;15.13;;;25.60;99.90;;;;;;5012749;28;20375;-75
2023/05/22 09:52:13;;;;;;;25.92;14.95;;;25.30;99.90;;;;;;5007600;28;20033;-76
2023/05/22 09:55:09;;;;;;;21.20;14.13;;;25.00;99.90;;;;;;5012833;28;20042;-76
2023/05/22 09:57:43;;;;;;;18.83;14.70;;;25.40;99.90;;;;;;5011212;28;20030;-76
2023/05/22 10:00:14;;;;;;;21.35;15.20;;;25.20;99.90;;;;;;5010129;28;20021;-75
2023/05/22 10:02:44;;;;;;;19.73;15.32;;;24.90;99.90;;;;;;5007156;28;20034;-75
2023/05/22 10:05:14;;;;;;;19.15;14.13;;;24.80;99.90;;;;;;5013297;28;20387;-75
2023/05/22 10:07:50;;;;;;;21.20;15.75;;;24.90;99.90;;;;;;5012405;28;20057;-76
2023/05/22 10:10:23;;;;;;;19.65;14.43;;;24.80;99.90;;;;;;5009758;28;20056;-76
2023/05/22 10:12:54;;;;;;;21.20;15.20;;;24.80;99.90;;;;;;5011794;28;20029;-76
2023/05/22 10:15:21;;;;;;;16.17;14.23;;;24.80;99.90;;;;;;5010967;28;20038;-79
2023/05/22 10:17:48;;;;;;;20.73;14.98;;;25.10;99.90;;;;;;5009389;28;20029;-75
2023/05/22 10:20:15;;;;;;;16.55;14.10;;;25.20;99.90;;;;;;5005744;28;20022;-76
2023/05/22 10:22:42;;;;;;;21.58;16.48;;;25.10;99.90;;;;;;4997634;28;20026;-75
2023/05/22 10:25:09;;;;;;;24.25;15.88;;;24.80;99.90;;;;;;4993166;28;20030;-76
2023/05/22 10:27:37;;;;;;;17.17;13.85;;;24.50;99.90;;;;;;4997478;28;20489;-76
2023/05/22 10:30:43;;;;;;;16.63;14.95;;;24.80;99.90;;;;;;4998446;28;20049;-75
2023/05/22 10:33:35;;;;;;;23.33;16.40;;;24.70;99.90;;;;;;5003583;28;20053;-75
2023/05/22 10:36:05;;;;;;;21.45;15.98;;;25.10;99.90;;;;;;5012472;28;20033;-75
2023/05/22 10:38:37;;;;;;;17.48;14.80;;;25.40;99.90;;;;;;5006523;28;20037;-75
2023/05/22 10:41:03;;;;;;;19.90;14.70;;;26.00;99.90;;;;;;5012180;28;20041;-75
2023/05/22 10:43:31;;;;;;;22.17;15.85;;;26.30;99.90;;;;;;5009168;28;20040;-75
2023/05/22 10:46:02;;;;;;;22.80;17.05;;;25.90;99.90;;;;;;5006564;28;20029;-75
2023/05/22 10:48:35;;;;;;;21.05;16.15;;;25.50;99.90;;;;;;5003261;28;20046;-76
2023/05/22 10:51:02;;;;;;;24.65;14.93;;;25.20;99.90;;;;;;5005884;28;20057;-76
2023/05/22 10:53:31;;;;;;;20.27;15.27;;;25.30;99.90;;;;;;5006521;28;20038;-75
2023/05/22 10:56:01;;;;;;;22.45;16.50;;;25.60;99.90;;;;;;5006562;28;20030;-75
2023/05/22 10:58:35;;;;;;;18.98;15.45;;;25.60;99.90;;;;;;5001109;28;20041;-75
2023/05/22 11:01:18;;;;;;;26.23;16.75;;;25.50;99.90;;;;;;5006947;28;20514;-75
2023/05/22 11:04:01;;;;;;;17.20;14.93;;;25.40;99.90;;;;;;5015094;28;20030;-75
2023/05/22 11:06:36;;;;;;;17.38;14.57;;;25.40;99.90;;;;;;5006482;28;20029;-75
2023/05/22 11:09:30;;;;;;;18.58;15.77;;;25.80;99.90;;;;;;5005745;28;20030;-75
2023/05/22 11:12:23;;;;;;;19.15;15.82;;;25.50;99.90;;;;;;5008597;28;20344;-75
2023/05/22 11:14:58;;;;;;;21.48;14.52;;;25.60;99.90;;;;;;4998816;28;20040;-75
2023/05/22 11:17:32;;;;;;;17.30;14.75;;;26.30;99.90;;;;;;5006191;28;20053;-76
2023/05/22 11:20:06;;;;;;;23.30;15.75;;;26.70;99.90;;;;;;4999044;28;20029;-76
2023/05/22 11:22:48;;;;;;;19.98;14.80;;;26.40;99.90;;;;;;5005941;28;20038;-76
2023/05/22 11:25:16;;;;;;;19.55;14.35;;;26.30;99.90;;;;;;5009955;28;20367;-75
2023/05/22 11:27:43;;;;;;;21.60;14.98;;;26.20;99.90;;;;;;5005950;28;20133;-76
2023/05/22 11:30:11;;;;;;;17.48;15.35;;;26.00;99.90;;;;;;5010155;28;20141;-76
2023/05/22 11:32:39;;;;;;;16.80;14.27;;;26.10;99.90;;;;;;5010536;28;20049;-75
2023/05/22 11:35:07;;;;;;;16.27;13.02;;;26.20;99.90;;;;;;5013881;28;20038;-76
2023/05/22 11:37:38;;;;;;;17.58;13.32;;;25.90;99.90;;;;;;5010479;28;20038;-75
2023/05/22 11:40:05;;;;;;;14.48;12.40;;;25.80;99.90;;;;;;5007611;28;20038;-76
2023/05/22 11:42:32;;;;;;;14.88;12.32;;;25.70;99.90;;;;;;5007970;28;20454;-76
2023/05/22 11:44:59;;;;;;;12.77;11.48;;;25.90;99.90;;;;;;5011225;28;20031;-75
2023/05/22 11:47:28;;;;;;;15.73;12.65;;;26.00;99.90;;;;;;5007134;28;20025;-77
2023/05/22 11:50:01;;;;;;;10.82;9.73;;;26.20;99.90;;;;;;5009798;28;20038;-77
2023/05/22 11:52:32;;;;;;;17.90;9.07;;;26.60;99.90;;;;;;5011725;28;20466;-75
2023/05/22 11:54:59;;;;;;;11.75;9.82;;;27.20;99.90;;;;;;5011812;28;20029;-76
2023/05/22 11:57:25;;;;;;;12.82;11.18;;;27.60;99.90;;;;;;5014706;28;20033;-77
2023/05/22 11:59:52;;;;;;;12.77;10.77;;;27.50;99.90;;;;;;5013375;28;20036;-76
2023/05/22 12:02:18;;;;;;;13.82;9.93;;;27.20;99.90;;;;;;5015370;28;20030;-75
2023/05/22 12:04:45;;;;;;;12.95;9.27;;;27.50;99.90;;;;;;5013285;28;20262;-76
2023/05/22 12:07:11;;;;;;;16.15;11.15;;;27.70;99.90;;;;;;5014881;28;20045;-75
2023/05/22 12:09:41;;;;;;;13.35;10.45;;;27.80;99.90;;;;;;5012930;28;20042;-76
2023/05/22 12:12:11;;;;;;;13.15;8.88;;;27.80;99.90;;;;;;5015135;28;20026;-75
2023/05/22 12:14:37;;;;;;;13.30;9.43;;;27.70;99.90;;;;;;5014427;28;20026;-75
2023/05/22 12:17:03;;;;;;;11.43;9.52;;;27.70;99.90;;;;;;5017049;28;20034;-75
2023/05/22 12:19:29;;;;;;;11.32;9.32;;;27.70;99.90;;;;;;5012773;28;20030;-75
2023/05/22 12:21:57;;;;;;;12.82;11.15;;;27.70;99.90;;;;;;5014550;28;20022;-75
2023/05/22 12:24:24;;;;;;;12.00;9.68;;;27.20;99.90;;;;;;5014616;28;20025;-79
2023/05/22 12:26:51;;;;;;;10.40;9.35;;;27.10;99.90;;;;;;5008692;28;20030;-77
2023/05/22 12:29:18;;;;;;;10.23;9.13;;;27.50;99.90;;;;;;5007958;28;20042;-75
2023/05/22 12:31:47;;;;;;;13.57;9.88;;;27.50;99.90;;;;;;5014195;28;20030;-76
2023/05/22 12:34:16;;;;;;;11.05;8.90;;;27.30;99.90;;;;;;5012203;28;20046;-76
2023/05/22 12:36:44;;;;;;;10.25;9.13;;;27.00;99.90;;;;;;5026829;28;20041;-75
2023/05/22 12:39:15;;;;;;;12.10;7.85;;;27.30;99.90;;;;;;5010674;28;20082;-76
2023/05/22 12:41:42;;;;;;;10.45;8.45;;;27.30;99.90;;;;;;5012121;28;20045;-75
2023/05/22 12:44:08;;;;;;;9.25;7.93;;;27.40;99.90;;;;;;5014240;28;20029;-75